AirNav   Air Wisconsin Up To $57,000 Bonus
 
 1638 users online  

CA39 Belos Cavalos Airport
Santa Rosa, California, USA

GOING TO SANTA ROSA?


FAA INFORMATION EFFECTIVE 20 JUNE 2019

Location

FAA Identifier: CA39
Lat/Long: 38-26-04.6790N / 122-33-48.9370W
38-26.077983N / 122-33.815617W
38.4346331 / -122.5635936
(estimated)
Elevation: 450 ft. / 137 m (estimated)
Variation: 16E (1985)
From city: 6 miles E of SANTA ROSA, CA
Time zone: UTC -7 (UTC -8 during Standard Time)
Zip code: 95409

Airport Operations

Airport use: Private use. Permission required prior to landing
Activation date: 03/1964
Control tower: no
ARTCC: OAKLAND CENTER
FSS: OAKLAND FLIGHT SERVICE STATION
Attendance: CONTINUOUS
Wind indicator: yes
Segmented circle: no

Airport Communications

WX AWOS-3P at O69 (11 nm S): 132.325 (707-773-1529)
WX ASOS at STS (13 nm W): 120.55 (707-573-8393)
WX AWOS-3P at DVO (17 nm S): 120.675 (415-897-2236)
WX ASOS at APC (19 nm SE): PHONE 707-252-7916

Nearby radio navigation aids

VOR radial/distance  VOR name  Freq  Var
STSr095/12.4SANTA ROSA VOR/DME113.0016E
SGDr313/17.7SCAGGS ISLAND VORTAC112.1017E
PYEr017/25.7POINT REYES VOR/DME113.7017E
CCRr297/33.8CONCORD VOR/DME117.0017E
SAUr340/34.8SAUSALITO VOR/DME116.2017E

Airport Services

Airframe service: MINOR
Powerplant service: MINOR

Runway Information

Runway E/W

Dimensions: 2500 x 70 ft. / 762 x 21 m
Surface: dirt
RUNWAY E  RUNWAY W
Traffic pattern: leftleft
Obstructions: treespline

Runway N/S

Dimensions: 1500 x 80 ft. / 457 x 24 m
Surface: dirt
RUNWAY N  RUNWAY S
Traffic pattern: leftleft
Obstructions: trees mtn-mnone

Airport Ownership and Management from official FAA records

Ownership: Privately-owned
Owner: BELLUZZO CHERLYN M TRUST
88 KING STREET, #1205
SAN FRANCISCO, CA 94107
Phone (208) 867-9372
Manager: ANGEL CONTRERAS
687 CAMPAGNA LANE
KENWOOD, CA 95452
Phone (707) 758-7715

Airport Operational Statistics

Aircraft based on the field: 1
Multi engine airplanes: 1
    

Additional Remarks

RWY HAS X'S ON EACH END.
FOR CD CTC OAKLAND ARTCC AT 510-745-3380.

Instrument Procedures

There are no published instrument procedures at CA39.

Some nearby airports with instrument procedures:

O69 - Petaluma Municipal Airport (11 nm S)
KSTS - Charles M Schulz - Sonoma County Airport (13 nm W)
KDVO - Gnoss Field Airport (17 nm S)
KAPC - Napa County Airport (19 nm SE)
KVCB - Nut Tree Airport (29 nm E)
 
Loc | Ops | Rwys | IFR | FBO | Links
Com | Nav | Svcs | Stats | Notes

Sonoma Jet Center
 
Area around CA39 (Belos Cavalos Airport)
 
Road maps at: MapQuest Bing Google
 
Aerial photo
WARNING: Photo may not be current or correct
Aerial photo of CA39 (Belos Cavalos Airport)
Photo by Dr. Charlyn Belluzzo and Bill Sherlock
Photo taken 06-Aug-2013
looking north.

Do you have a better or more recent aerial photo of Belos Cavalos Airport that you would like to share? If so, please send us your photo.

 
Sectional chart

 
Airport distance calculator
Flying to Belos Cavalos Airport? Find the distance to fly.

From to CA39

Sunrise and sunset
Times for 24-Jun-2019
 Local
(UTC-7)
 Zulu
(UTC)
Morning civil twilight05:1712:17
Sunrise05:4812:48
Sunset20:3703:37
Evening civil twilight21:0904:09

Current date and time
Zulu (UTC)  24-Jun-2019 18:44:20
Local (UTC-7)  24-Jun-2019 11:44:20
 
METAR
KO69 
11nm S 
241840Z AUTO 27006KT 10SM CLR 23/14 A2989 RMK A01
KSTS 
13nm W 
707-573-8393
241753Z 17006KT 8SM SCT200 21/13 A2989 RMK AO2 SLP116 T02110133 10211 20100 58002
KDVO 
17nm S 
241835Z AUTO VRB04KT 10SM CLR 23/15 A2988 RMK AO2
KAPC 
19nm SE 
241754Z 20007KT 10SM CLR 19/13 A2989 RMK AO2 SLP112 T01890133 10189 20111 58001
TAF
KSTS 
13nm W 
241720Z 2418/2518 VRB04KT P6SM SCT200 FM242000 17009KT P6SM FEW200 FM250500 VRB04KT P6SM SCT200 FM251000 00000KT 4SM BR OVC003 FM251300 00000KT 1/2SM FG OVC001 FM251600 VRB03KT 6SM BR BKN004
NOTAMs
Click for the latest NOTAMs
NOTAMs are issued by the DoD/FAA and will open in a separate window not controlled by AirNav.

 

 
 

Would you like to see your business listed on this page?

 If your business provides an interesting product or service to pilots, flight crews, aircraft, or users of the Belos Cavalos Airport, you should consider listing it here.  To start the listing process, click on the button below
 
Add a business
 

Other Pages about Belos Cavalos Airport

Update a link
 
Copyright © AirNav, LLC. All rights reserved. Privacy Policy  Contact